Time;durP1;ratioP1;P1;durP2;ratioP2;P2;SDS_P1;SDS_P2;PMS_P1;PMS_P2;Temp;Humidity;BMP_temperature;BMP_pressure;BME280_temperature;BME280_humidity;BME280_pressure;Samples;Min_cycle;Max_cycle;Signal;HPM_P1;HPM_P2
2023/10/17 00:01:55;;;;;;;8.30;3.80;;;;;;;;;;103642;1294;545388;-77
2023/10/17 00:05:32;;;;;;;8.60;3.40;;;;;;;;;;103639;1291;547953;-77
2023/10/17 00:09:06;;;;;;;8.20;3.30;;;;;;;;;;103720;1291;544756;-77
2023/10/17 00:12:44;;;;;;;8.00;3.40;;;;;;;;;;104507;1286;544728;-77
2023/10/17 00:16:18;;;;;;;8.00;3.30;;;;;;;;;;103681;1292;545475;-78
2023/10/17 00:20:07;;;;;;;9.00;3.70;;;;;;;;;;103234;1295;548541;-77
2023/10/17 00:23:39;;;;;;;7.90;3.50;;;;;;;;;;103477;1301;548401;-77
2023/10/17 00:27:11;;;;;;;9.40;3.60;;;;;;;;;;105867;1289;544867;-78
2023/10/17 00:30:54;;;;;;;8.20;3.50;;;;;;;;;;103462;1292;548131;-78
2023/10/17 00:34:27;;;;;;;9.00;3.20;;;;;;;;;;104085;1293;544782;-77
2023/10/17 00:38:09;;;;;;;8.80;3.80;;;;;;;;;;103310;1294;548095;-77
2023/10/17 00:45:19;;;;;;;7.50;3.10;;;;;;;;;;103986;1289;545171;-78
2023/10/17 00:48:56;;;;;;;7.40;3.10;;;;;;;;;;103777;1291;544801;-77
2023/10/17 00:52:39;;;;;;;7.50;3.30;;;;;;;;;;103497;1290;547966;-78
2023/10/17 00:56:16;;;;;;;7.50;3.40;;;;;;;;;;103576;1291;548125;-77
2023/10/17 00:59:55;;;;;;;9.60;3.90;;;;;;;;;;103499;1292;547980;-78
2023/10/17 01:03:45;;;;;;;6.80;3.40;;;;;;;;;;103731;1292;548148;-78
2023/10/17 01:07:11;;;;;;;7.80;3.40;;;;;;;;;;103645;1289;547834;-77
2023/10/17 01:10:41;;;;;;;8.30;3.40;;;;;;;;;;103782;1295;544884;-78
2023/10/17 01:14:18;;;;;;;7.60;3.60;;;;;;;;;;103726;1289;545046;-78
2023/10/17 01:18:04;;;;;;;8.50;3.60;;;;;;;;;;103658;1289;547918;-77
2023/10/17 01:21:42;;;;;;;7.40;3.00;;;;;;;;;;103590;1292;547959;-77
2023/10/17 01:25:26;;;;;;;8.00;3.00;;;;;;;;;;103638;1292;547859;-77
2023/10/17 01:28:53;;;;;;;7.60;3.00;;;;;;;;;;103680;1292;547942;-77
2023/10/17 01:32:31;;;;;;;8.60;3.50;;;;;;;;;;103717;1292;548003;-78
2023/10/17 01:36:05;;;;;;;7.60;3.30;;;;;;;;;;103858;1292;545044;-77
2023/10/17 01:39:40;;;;;;;6.70;2.90;;;;;;;;;;103823;1289;544882;-77
2023/10/17 01:43:17;;;;;;;6.40;2.80;;;;;;;;;;103993;1289;545024;-77
2023/10/17 01:47:00;;;;;;;7.30;3.10;;;;;;;;;;103648;1289;547781;-78
2023/10/17 01:50:33;;;;;;;6.20;2.90;;;;;;;;;;103778;1293;545085;-78
2023/10/17 01:54:14;;;;;;;7.70;3.50;;;;;;;;;;104035;1290;544841;-77
2023/10/17 01:57:54;;;;;;;8.20;3.60;;;;;;;;;;103473;1304;548153;-78
2023/10/17 02:01:36;;;;;;;6.50;3.10;;;;;;;;;;103645;1293;548066;-77
2023/10/17 02:05:02;;;;;;;7.60;3.00;;;;;;;;;;103767;1291;545493;-78
2023/10/17 02:08:45;;;;;;;7.50;3.60;;;;;;;;;;103540;1292;548000;-77
2023/10/17 02:12:19;;;;;;;8.30;3.80;;;;;;;;;;104050;1289;545634;-77
2023/10/17 02:16:00;;;;;;;7.10;3.50;;;;;;;;;;103558;1289;548427;-78
2023/10/17 02:19:32;;;;;;;8.00;3.40;;;;;;;;;;103615;1290;545458;-77
2023/10/17 02:23:14;;;;;;;7.10;3.20;;;;;;;;;;103750;1289;545833;-76
2023/10/17 02:26:56;;;;;;;9.10;3.70;;;;;;;;;;103821;1295;544807;-78
2023/10/17 02:30:30;;;;;;;7.90;3.70;;;;;;;;;;103935;1291;547764;-78
2023/10/17 02:34:02;;;;;;;8.40;4.10;;;;;;;;;;103837;1295;545443;-77
2023/10/17 02:37:45;;;;;;;7.30;3.30;;;;;;;;;;103241;1306;548304;-77
2023/10/17 02:41:21;;;;;;;8.10;3.60;;;;;;;;;;103755;1292;544964;-78
2023/10/17 02:45:07;;;;;;;7.80;3.50;;;;;;;;;;103591;1292;547864;-77
2023/10/17 02:48:38;;;;;;;8.50;3.90;;;;;;;;;;103667;1292;545592;-78
2023/10/17 02:52:17;;;;;;;9.10;4.00;;;;;;;;;;103530;1292;547956;-79
2023/10/17 02:55:47;;;;;;;9.30;3.70;;;;;;;;;;103795;1290;544774;-77
2023/10/17 02:59:24;;;;;;;8.70;3.70;;;;;;;;;;103835;1292;544961;-77
2023/10/17 03:03:14;;;;;;;9.00;4.10;;;;;;;;;;103427;1297;547783;-77
2023/10/17 03:06:45;;;;;;;8.80;4.20;;;;;;;;;;103679;1294;547999;-77
2023/10/17 03:10:20;;;;;;;10.10;4.50;;;;;;;;;;103967;1289;545037;-77
2023/10/17 03:14:15;;;;;;;9.90;4.30;;;;;;;;;;103851;1292;544987;-77
2023/10/17 03:17:41;;;;;;;10.00;4.30;;;;;;;;;;103787;1289;544848;-78
2023/10/17 03:21:28;;;;;;;11.40;3.50;;;;;;;;;;104121;1286;545012;-77
2023/10/17 03:25:02;;;;;;;10.40;4.30;;;;;;;;;;103636;1293;547876;-77
2023/10/17 03:28:33;;;;;;;14.60;5.60;;;;;;;;;;103758;1291;545077;-77
2023/10/17 03:32:16;;;;;;;9.80;5.40;;;;;;;;;;103639;1291;548219;-77
2023/10/17 03:39:28;;;;;;;10.70;5.00;;;;;;;;;;103887;1288;545421;-77
2023/10/17 03:43:11;;;;;;;11.10;5.70;;;;;;;;;;103622;1294;547758;-77
2023/10/17 03:46:40;;;;;;;11.80;5.70;;;;;;;;;;103965;1291;545020;-78
2023/10/17 03:50:42;;;;;;;11.80;5.50;;;;;;;;;;103801;1289;544872;-77
2023/10/17 03:54:06;;;;;;;12.40;6.70;;;;;;;;;;103767;1289;545573;-77
2023/10/17 03:57:40;;;;;;;9.90;5.40;;;;;;;;;;104069;1292;547777;-77
2023/10/17 04:01:10;;;;;;;16.10;6.30;;;;;;;;;;103673;1292;544954;-77
2023/10/17 04:04:53;;;;;;;12.90;6.60;;;;;;;;;;103648;1292;548021;-77
2023/10/17 04:08:31;;;;;;;12.90;6.90;;;;;;;;;;103624;1289;548094;-77
2023/10/17 04:12:03;;;;;;;13.40;6.80;;;;;;;;;;103741;1291;544735;-77
2023/10/17 04:15:42;;;;;;;12.10;6.80;;;;;;;;;;103834;1289;545548;-77
2023/10/17 04:19:17;;;;;;;11.50;7.40;;;;;;;;;;103753;1292;544985;-77
2023/10/17 04:23:01;;;;;;;18.40;7.70;;;;;;;;;;103630;1289;547976;-77
2023/10/17 04:26:47;;;;;;;13.50;7.60;;;;;;;;;;103470;1292;548081;-77
2023/10/17 04:30:14;;;;;;;13.60;7.20;;;;;;;;;;104004;1290;545242;-77
2023/10/17 04:33:43;;;;;;;11.30;7.10;;;;;;;;;;103881;1293;544808;-76
2023/10/17 04:37:32;;;;;;;12.10;6.70;;;;;;;;;;104024;1290;546174;-77
2023/10/17 04:44:55;;;;;;;15.80;8.20;;;;;;;;;;103586;1289;547830;-77
2023/10/17 04:48:32;;;;;;;16.40;10.00;;;;;;;;;;103795;1289;544814;-77
2023/10/17 04:52:06;;;;;;;16.20;10.20;;;;;;;;;;103725;1289;545095;-76
2023/10/17 04:56:00;;;;;;;20.50;11.70;;;;;;;;;;103555;1289;547938;-77
2023/10/17 04:59:27;;;;;;;21.50;14.00;;;;;;;;;;103747;1294;545479;-77
2023/10/17 05:07:07;;;;;;;21.50;11.70;;;;;;;;;;103791;1290;546288;-76
2023/10/17 06:17:50;;;;;;;19.90;12.50;;;;;;;;;;104000;1289;545605;-76
2023/10/17 06:32:48;;;;;;;19.50;11.40;;;;;;;;;;104184;1285;554279;-76
2023/10/17 06:35:23;;;;;;;22.40;12.30;;;;;;;;;;103867;1288;546727;-77
2023/10/17 06:38:57;;;;;;;23.50;13.10;;;;;;;;;;103738;1294;545369;-77
2023/10/17 06:43:13;;;;;;;22.00;12.30;;;;;;;;;;103776;1292;547891;-78
2023/10/17 06:46:14;;;;;;;27.70;12.40;;;;;;;;;;103714;1292;544769;-77
2023/10/17 06:53:27;;;;;;;20.30;12.80;;;;;;;;;;103765;1292;544928;-77
2023/10/17 06:57:19;;;;;;;20.90;13.10;;;;;;;;;;103542;1292;548063;-79
2023/10/17 07:00:53;;;;;;;26.50;15.50;;;;;;;;;;103584;1302;545113;-77
2023/10/17 07:04:20;;;;;;;26.20;16.30;;;;;;;;;;103793;1292;545427;-78
2023/10/17 07:07:59;;;;;;;30.20;16.30;;;;;;;;;;103724;1291;545451;-79
2023/10/17 07:11:36;;;;;;;29.90;16.10;;;;;;;;;;103663;1292;545209;-77
2023/10/17 07:15:25;;;;;;;23.10;15.00;;;;;;;;;;103661;1292;545068;-76
2023/10/17 07:18:51;;;;;;;24.30;15.40;;;;;;;;;;103750;1290;545168;-76
2023/10/17 07:22:35;;;;;;;24.60;15.20;;;;;;;;;;103740;1289;545530;-76
2023/10/17 07:26:17;;;;;;;25.10;14.60;;;;;;;;;;103299;1294;546024;-79
2023/10/17 07:30:13;;;;;;;20.00;12.90;;;;;;;;;;104252;1287;548026;-76
2023/10/17 07:33:26;;;;;;;25.30;13.90;;;;;;;;;;103647;1292;548005;-77
2023/10/17 07:47:33;;;;;;;20.50;10.00;;;;;;;;;;104687;1285;554294;-79
2023/10/17 08:00:41;;;;;;;13.50;8.70;;;;;;;;;;104728;1285;549764;-76
2023/10/17 08:14:01;;;;;;;18.10;11.80;;;;;;;;;;104550;1286;550330;-79
2023/10/17 08:16:54;;;;;;;20.00;11.70;;;;;;;;;;103739;1288;545143;-78
2023/10/17 08:24:09;;;;;;;17.20;11.30;;;;;;;;;;103732;1288;546248;-76
2023/10/17 08:28:05;;;;;;;17.50;11.20;;;;;;;;;;103597;1293;548016;-76
2023/10/17 08:35:20;;;;;;;16.30;10.00;;;;;;;;;;103660;1294;547830;-78
2023/10/17 08:38:47;;;;;;;14.00;7.90;;;;;;;;;;103302;1299;548089;-77
2023/10/17 08:52:43;;;;;;;9.70;5.60;;;;;;;;;;104535;1284;553727;-77
2023/10/17 08:55:43;;;;;;;8.80;5.20;;;;;;;;;;103639;1288;547925;-78
2023/10/17 09:09:37;;;;;;;27.20;15.00;;;;;;;;;;104496;1285;550415;-79
2023/10/17 09:12:42;;;;;;;11.00;5.40;;;;;;;;;;104023;1288;546128;-76
2023/10/17 09:16:34;;;;;;;9.30;4.90;;;;;;;;;;104103;1289;547879;-77
2023/10/17 09:30:10;;;;;;;9.20;5.80;;;;;;;;;;104762;1295;550168;-77
2023/10/17 09:43:24;;;;;;;13.20;7.90;;;;;;;;;;104449;1288;550361;-78
2023/10/17 09:56:46;;;;;;;12.20;7.30;;;;;;;;;;104368;1295;551175;-78
2023/10/17 09:59:40;;;;;;;10.50;6.80;;;;;;;;;;103816;1292;545581;-77
2023/10/17 10:14:03;;;;;;;8.40;4.90;;;;;;;;;;104378;1285;553897;-77
2023/10/17 10:16:57;;;;;;;10.30;6.20;;;;;;;;;;103545;1308;544785;-78
2023/10/17 10:20:58;;;;;;;11.70;7.00;;;;;;;;;;103968;1289;547974;-78
2023/10/17 10:24:03;;;;;;;11.30;6.90;;;;;;;;;;103848;1290;545363;-78
2023/10/17 10:38:02;;;;;;;12.30;6.40;;;;;;;;;;104742;1285;550070;-76
2023/10/17 10:41:06;;;;;;;9.40;6.20;;;;;;;;;;103558;1295;547925;-78
2023/10/17 10:44:41;;;;;;;10.30;6.30;;;;;;;;;;103739;1291;544820;-77
2023/10/17 10:48:17;;;;;;;10.60;6.80;;;;;;;;;;103669;1292;547989;-77
2023/10/17 10:51:50;;;;;;;10.60;6.90;;;;;;;;;;103861;1289;545046;-77
2023/10/17 10:55:31;;;;;;;11.30;6.20;;;;;;;;;;103521;1292;548264;-76
2023/10/17 11:10:00;;;;;;;10.30;6.00;;;;;;;;;;104720;1282;553137;-78
2023/10/17 11:12:53;;;;;;;9.80;6.50;;;;;;;;;;103598;1292;547851;-78
2023/10/17 11:16:46;;;;;;;9.50;5.40;;;;;;;;;;103744;1298;548119;-79
2023/10/17 11:30:32;;;;;;;18.60;10.20;;;;;;;;;;104820;1282;550252;-77
2023/10/17 11:33:28;;;;;;;13.30;6.20;;;;;;;;;;103678;1292;544969;-77
2023/10/17 11:36:55;;;;;;;15.90;9.10;;;;;;;;;;103679;1292;545404;-77
2023/10/17 11:40:50;;;;;;;13.20;7.00;;;;;;;;;;104277;1284;548023;-77
2023/10/17 11:44:31;;;;;;;10.20;5.40;;;;;;;;;;103829;1292;547801;-77
2023/10/17 11:48:28;;;;;;;9.80;5.80;;;;;;;;;;103842;1302;548038;-77
2023/10/17 12:02:03;;;;;;;7.00;3.70;;;;;;;;;;104600;1283;552861;-79
2023/10/17 12:05:18;;;;;;;8.00;4.40;;;;;;;;;;103663;1293;545247;-79
2023/10/17 12:08:59;;;;;;;7.90;3.90;;;;;;;;;;105009;1277;546581;-77
2023/10/17 12:23:00;;;;;;;6.80;4.10;;;;;;;;;;104760;1282;554954;-77
2023/10/17 12:26:26;;;;;;;9.30;3.90;;;;;;;;;;105916;1282;549253;-77
2023/10/17 12:30:11;;;;;;;8.70;4.00;;;;;;;;;;104637;1284;545487;-78
2023/10/17 12:43:31;;;;;;;6.60;3.00;;;;;;;;;;104697;1282;549596;-80
2023/10/17 12:46:30;;;;;;;12.50;8.10;;;;;;;;;;103671;1293;545402;-78
2023/10/17 12:50:09;;;;;;;8.80;4.30;;;;;;;;;;103503;1292;547753;-77
2023/10/17 13:04:29;;;;;;;7.00;2.90;;;;;;;;;;104255;1285;553717;-76
2023/10/17 13:07:48;;;;;;;6.80;3.00;;;;;;;;;;104033;1289;547969;-77
2023/10/17 13:21:28;;;;;;;7.40;4.00;;;;;;;;;;104356;1288;551333;-78
2023/10/17 13:24:21;;;;;;;8.90;4.00;;;;;;;;;;104340;1289;545235;-77
2023/10/17 13:28:05;;;;;;;9.50;4.70;;;;;;;;;;103471;1294;547916;-76
2023/10/17 13:32:01;;;;;;;10.40;4.70;;;;;;;;;;103665;1292;548687;-76
2023/10/17 13:35:40;;;;;;;7.90;3.80;;;;;;;;;;103679;1293;547990;-77
2023/10/17 13:38:51;;;;;;;7.20;3.00;;;;;;;;;;104051;1288;545427;-77
2023/10/17 13:42:35;;;;;;;8.20;3.40;;;;;;;;;;103405;1292;548197;-77
2023/10/17 13:46:12;;;;;;;7.60;3.00;;;;;;;;;;103594;1292;547921;-78
2023/10/17 13:49:49;;;;;;;9.40;3.50;;;;;;;;;;103645;1291;548168;-77
2023/10/17 13:53:27;;;;;;;8.10;3.40;;;;;;;;;;103298;1294;548079;-77
2023/10/17 13:56:58;;;;;;;8.10;3.50;;;;;;;;;;103636;1291;544735;-77
2023/10/17 14:00:49;;;;;;;7.30;3.30;;;;;;;;;;103764;1289;544893;-77
2023/10/17 14:04:13;;;;;;;6.80;3.20;;;;;;;;;;103720;1289;547187;-77
2023/10/17 14:08:02;;;;;;;6.90;3.40;;;;;;;;;;103596;1293;548087;-78
2023/10/17 14:11:28;;;;;;;7.90;3.70;;;;;;;;;;103721;1291;544978;-76
2023/10/17 14:28:37;;;;;;;6.60;2.90;;;;;;;;;;103734;1290;544851;-78
2023/10/17 14:32:20;;;;;;;8.10;3.80;;;;;;;;;;103513;1291;548288;-78
2023/10/17 14:35:51;;;;;;;7.50;3.70;;;;;;;;;;104108;1286;545147;-77
2023/10/17 14:39:29;;;;;;;8.60;3.00;;;;;;;;;;103720;1292;544805;-77
2023/10/17 14:43:08;;;;;;;8.10;3.10;;;;;;;;;;103692;1295;545859;-76
2023/10/17 14:46:44;;;;;;;7.70;3.00;;;;;;;;;;103768;1295;545730;-77
2023/10/17 14:50:30;;;;;;;7.70;3.00;;;;;;;;;;103572;1294;547968;-77
2023/10/17 14:54:07;;;;;;;7.80;3.00;;;;;;;;;;103751;1292;544758;-77
2023/10/17 15:08:05;;;;;;;8.00;3.60;;;;;;;;;;104598;1283;553641;-77
2023/10/17 15:21:34;;;;;;;7.90;3.90;;;;;;;;;;104453;1285;554288;-77
2023/10/17 15:24:27;;;;;;;10.00;4.20;;;;;;;;;;103798;1291;544966;-76
2023/10/17 15:28:17;;;;;;;8.50;4.00;;;;;;;;;;103430;1295;547782;-76
2023/10/17 15:32:01;;;;;;;9.80;4.00;;;;;;;;;;103587;1295;548113;-78
2023/10/17 15:35:45;;;;;;;8.20;4.00;;;;;;;;;;103976;1292;548158;-76
2023/10/17 15:38:56;;;;;;;9.20;4.70;;;;;;;;;;103727;1289;545401;-78
2023/10/17 15:42:35;;;;;;;11.70;5.90;;;;;;;;;;103922;1292;544785;-76
2023/10/17 15:46:18;;;;;;;11.00;6.00;;;;;;;;;;103892;1285;546640;-75
2023/10/17 15:50:17;;;;;;;12.00;6.10;;;;;;;;;;103705;1289;547879;-76
2023/10/17 16:03:56;;;;;;;10.50;5.80;;;;;;;;;;104835;1282;553507;-78
2023/10/17 16:06:48;;;;;;;11.70;5.90;;;;;;;;;;103745;1288;545110;-77
2023/10/17 16:10:29;;;;;;;11.00;5.20;;;;;;;;;;103677;1292;544910;-78
2023/10/17 16:14:10;;;;;;;24.70;16.00;;;;;;;;;;103713;1292;547959;-79
2023/10/17 16:17:47;;;;;;;23.00;14.90;;;;;;;;;;103667;1289;548128;-77
2023/10/17 16:21:41;;;;;;;26.90;17.10;;;;;;;;;;103705;1292;548127;-77
2023/10/17 16:24:56;;;;;;;30.50;18.70;;;;;;;;;;103721;1289;546496;-79
2023/10/17 16:28:38;;;;;;;23.50;13.90;;;;;;;;;;104328;1286;548105;-75
2023/10/17 16:32:12;;;;;;;18.20;10.90;;;;;;;;;;103599;1298;547778;-77
2023/10/17 16:35:58;;;;;;;42.70;26.90;;;;;;;;;;103772;1289;548036;-79
2023/10/17 16:49:49;;;;;;;20.60;11.80;;;;;;;;;;104484;1285;550041;-77
2023/10/17 16:52:48;;;;;;;44.80;20.00;;;;;;;;;;103581;1291;547813;-76
2023/10/17 16:56:39;;;;;;;45.40;22.40;;;;;;;;;;103657;1290;548088;-78
2023/10/17 16:59:57;;;;;;;24.60;11.80;;;;;;;;;;103982;1289;545500;-77
2023/10/17 17:03:34;;;;;;;28.40;15.10;;;;;;;;;;103570;1294;545382;-77
2023/10/17 17:07:09;;;;;;;47.60;25.60;;;;;;;;;;103741;1292;544847;-78
2023/10/17 17:10:53;;;;;;;48.30;28.00;;;;;;;;;;103716;1289;545182;-77
2023/10/17 17:14:49;;;;;;;56.60;33.00;;;;;;;;;;103886;1293;547930;-77
2023/10/17 17:18:18;;;;;;;49.90;30.70;;;;;;;;;;104723;1282;548219;-76
2023/10/17 17:21:48;;;;;;;43.60;25.50;;;;;;;;;;103659;1290;544950;-77
2023/10/17 17:25:28;;;;;;;37.00;20.70;;;;;;;;;;103513;1291;548024;-77
2023/10/17 17:29:06;;;;;;;28.00;15.20;;;;;;;;;;103826;1289;545357;-77
2023/10/17 17:32:51;;;;;;;23.70;12.70;;;;;;;;;;103695;1292;547767;-76
2023/10/17 17:36:34;;;;;;;24.40;11.20;;;;;;;;;;103809;1292;547993;-76
2023/10/17 17:39:56;;;;;;;23.00;11.20;;;;;;;;;;103447;1294;547850;-76
2023/10/17 17:43:30;;;;;;;21.30;11.30;;;;;;;;;;104006;1288;544805;-77
2023/10/17 17:47:13;;;;;;;21.50;11.30;;;;;;;;;;103569;1292;548428;-77
2023/10/17 17:50:41;;;;;;;22.80;12.00;;;;;;;;;;103679;1292;545296;-76
2023/10/17 18:04:45;;;;;;;19.70;10.80;;;;;;;;;;104678;1286;549930;-77
2023/10/17 18:07:50;;;;;;;19.60;10.80;;;;;;;;;;103685;1295;548018;-79
2023/10/17 18:11:22;;;;;;;21.30;10.90;;;;;;;;;;103528;1292;548102;-79
2023/10/17 18:14:59;;;;;;;21.10;11.30;;;;;;;;;;103968;1289;547831;-76
2023/10/17 18:29:24;;;;;;;24.50;14.20;;;;;;;;;;104520;1285;553827;-79
2023/10/17 18:32:52;;;;;;;27.90;16.40;;;;;;;;;;103559;1290;547845;-77
2023/10/17 18:36:01;;;;;;;24.20;15.10;;;;;;;;;;104320;1283;548070;-77
2023/10/17 18:39:42;;;;;;;33.90;19.60;;;;;;;;;;103478;1294;548026;-76
2023/10/17 18:43:16;;;;;;;33.80;20.50;;;;;;;;;;103491;1291;546215;-76
2023/10/17 18:47:07;;;;;;;36.80;21.30;;;;;;;;;;103824;1289;547766;-77
2023/10/17 18:50:25;;;;;;;35.50;22.50;;;;;;;;;;103641;1292;544995;-76
2023/10/17 18:54:27;;;;;;;44.10;27.90;;;;;;;;;;103513;1295;547937;-76
2023/10/17 18:57:51;;;;;;;43.10;28.10;;;;;;;;;;103525;1292;548053;-76
2023/10/17 19:01:22;;;;;;;50.50;30.00;;;;;;;;;;103639;1292;547970;-78
2023/10/17 19:15:48;;;;;;;36.70;23.20;;;;;;;;;;104390;1285;553803;-76
2023/10/17 19:18:41;;;;;;;34.20;22.60;;;;;;;;;;104274;1289;545395;-76
2023/10/17 19:22:24;;;;;;;34.70;23.40;;;;;;;;;;103321;1298;548021;-76
2023/10/17 19:26:13;;;;;;;39.30;24.20;;;;;;;;;;103560;1292;548154;-76
2023/10/17 19:29:38;;;;;;;49.70;28.40;;;;;;;;;;103940;1287;547996;-77
2023/10/17 19:33:12;;;;;;;48.90;31.30;;;;;;;;;;103297;1295;548136;-77
2023/10/17 19:37:00;;;;;;;61.20;41.50;;;;;;;;;;104124;1285;548041;-76
2023/10/17 19:40:31;;;;;;;71.30;47.50;;;;;;;;;;103508;1290;547777;-77
2023/10/17 19:44:08;;;;;;;62.70;43.80;;;;;;;;;;104002;1289;547958;-76
2023/10/17 19:47:49;;;;;;;60.70;40.60;;;;;;;;;;103734;1289;547278;-77
2023/10/17 19:51:14;;;;;;;54.80;36.90;;;;;;;;;;103810;1295;546058;-77
2023/10/17 19:55:07;;;;;;;53.20;36.10;;;;;;;;;;103603;1295;548025;-76
2023/10/17 19:58:39;;;;;;;51.10;34.20;;;;;;;;;;103458;1294;548105;-77
2023/10/17 20:02:36;;;;;;;47.20;29.80;;;;;;;;;;103770;1299;547850;-76
2023/10/17 20:16:23;;;;;;;48.10;31.30;;;;;;;;;;104437;1285;553666;-76
2023/10/17 20:19:21;;;;;;;48.50;31.20;;;;;;;;;;103565;1291;547774;-76
2023/10/17 20:33:23;;;;;;;42.70;29.60;;;;;;;;;;104527;1284;553643;-75
2023/10/17 20:36:27;;;;;;;42.50;30.20;;;;;;;;;;103925;1291;547875;-76
2023/10/17 20:40:11;;;;;;;48.10;32.50;;;;;;;;;;103246;1298;548028;-76
2023/10/17 20:43:50;;;;;;;44.60;29.40;;;;;;;;;;103676;1291;547798;-77
2023/10/17 20:47:08;;;;;;;43.80;28.70;;;;;;;;;;103577;1295;546035;-75
2023/10/17 20:50:59;;;;;;;44.10;27.60;;;;;;;;;;103592;1292;548050;-76
2023/10/17 20:54:50;;;;;;;43.60;28.60;;;;;;;;;;104139;1287;547806;-79
2023/10/17 20:58:06;;;;;;;46.90;29.60;;;;;;;;;;103532;1292;547777;-76
2023/10/17 21:02:09;;;;;;;47.10;29.80;;;;;;;;;;103783;1291;547980;-75
2023/10/17 21:05:21;;;;;;;47.30;27.80;;;;;;;;;;103537;1292;547882;-75
2023/10/17 21:09:18;;;;;;;46.60;28.00;;;;;;;;;;103486;1294;547778;-75
2023/10/17 21:12:37;;;;;;;45.70;28.30;;;;;;;;;;103514;1292;545844;-76
2023/10/17 21:16:16;;;;;;;42.90;28.20;;;;;;;;;;103832;1286;547989;-76
2023/10/17 21:19:54;;;;;;;42.00;27.60;;;;;;;;;;103527;1294;547795;-76
2023/10/17 21:23:31;;;;;;;39.10;24.80;;;;;;;;;;103594;1294;547927;-75
2023/10/17 21:27:08;;;;;;;39.30;25.10;;;;;;;;;;103517;1291;548293;-75
2023/10/17 21:30:37;;;;;;;42.20;26.70;;;;;;;;;;103728;1294;545063;-75
2023/10/17 21:34:15;;;;;;;39.60;26.60;;;;;;;;;;104014;1291;546539;-77
2023/10/17 21:37:49;;;;;;;40.20;27.80;;;;;;;;;;104620;1289;545643;-77
2023/10/17 21:41:33;;;;;;;44.70;26.80;;;;;;;;;;103707;1289;545043;-76
2023/10/17 21:45:15;;;;;;;40.90;25.70;;;;;;;;;;103617;1290;547898;-78
2023/10/17 21:48:47;;;;;;;36.80;24.40;;;;;;;;;;103813;1292;545605;-77
2023/10/17 21:52:25;;;;;;;37.50;24.10;;;;;;;;;;103825;1292;545077;-76
2023/10/17 21:56:07;;;;;;;32.10;21.90;;;;;;;;;;103649;1295;547841;-76
2023/10/17 21:59:39;;;;;;;37.40;24.10;;;;;;;;;;103784;1293;545693;-76
2023/10/17 22:03:22;;;;;;;37.20;24.10;;;;;;;;;;103544;1291;547763;-76
2023/10/17 22:06:55;;;;;;;37.50;24.20;;;;;;;;;;103715;1292;546017;-77
2023/10/17 22:10:32;;;;;;;34.40;22.10;;;;;;;;;;103775;1292;546256;-76
2023/10/17 22:14:09;;;;;;;31.40;21.20;;;;;;;;;;103671;1294;545002;-79
2023/10/17 22:17:46;;;;;;;34.20;22.40;;;;;;;;;;103694;1290;545521;-76
2023/10/17 22:21:26;;;;;;;32.30;21.40;;;;;;;;;;103972;1292;545058;-76
2023/10/17 22:25:02;;;;;;;27.80;18.70;;;;;;;;;;103715;1291;545222;-75
2023/10/17 22:28:39;;;;;;;25.90;17.10;;;;;;;;;;104035;1289;544745;-76
2023/10/17 22:32:16;;;;;;;24.90;16.10;;;;;;;;;;103658;1289;544835;-75
2023/10/17 22:35:54;;;;;;;25.00;16.10;;;;;;;;;;104069;1289;544803;-75
2023/10/17 22:39:31;;;;;;;25.10;17.20;;;;;;;;;;103831;1292;545372;-75
2023/10/17 22:43:07;;;;;;;29.40;18.60;;;;;;;;;;103761;1290;545484;-75
2023/10/17 22:46:46;;;;;;;24.80;16.60;;;;;;;;;;103790;1289;544988;-75
2023/10/17 22:50:44;;;;;;;22.50;14.90;;;;;;;;;;103841;1292;547760;-75
2023/10/17 22:54:20;;;;;;;22.60;15.00;;;;;;;;;;103622;1292;547979;-76
2023/10/17 22:58:03;;;;;;;25.60;17.10;;;;;;;;;;103520;1295;548055;-77
2023/10/17 23:01:16;;;;;;;26.00;17.10;;;;;;;;;;103687;1292;544818;-76
2023/10/17 23:04:59;;;;;;;24.70;16.80;;;;;;;;;;103569;1289;548076;-76
2023/10/17 23:08:31;;;;;;;25.20;16.70;;;;;;;;;;104035;1292;544856;-75
2023/10/17 23:12:09;;;;;;;24.60;15.80;;;;;;;;;;103489;1305;545462;-75
2023/10/17 23:15:46;;;;;;;25.70;17.40;;;;;;;;;;103699;1291;544971;-76
2023/10/17 23:19:23;;;;;;;27.20;17.90;;;;;;;;;;103626;1292;545159;-78
2023/10/17 23:23:00;;;;;;;27.60;18.60;;;;;;;;;;103758;1291;544752;-76
2023/10/17 23:26:38;;;;;;;26.70;17.20;;;;;;;;;;103817;1292;545188;-75
2023/10/17 23:30:16;;;;;;;24.70;16.70;;;;;;;;;;103802;1291;545893;-76
2023/10/17 23:33:59;;;;;;;28.90;18.90;;;;;;;;;;103720;1292;545022;-75
2023/10/17 23:37:39;;;;;;;30.10;19.80;;;;;;;;;;103718;1291;544799;-78
2023/10/17 23:41:14;;;;;;;30.40;20.60;;;;;;;;;;103782;1301;544767;-76
2023/10/17 23:44:58;;;;;;;28.30;18.80;;;;;;;;;;103544;1291;547774;-76
2023/10/17 23:48:29;;;;;;;26.70;17.20;;;;;;;;;;103736;1292;545781;-79
2023/10/17 23:52:03;;;;;;;27.00;16.20;;;;;;;;;;103949;1292;545029;-76
2023/10/17 23:55:59;;;;;;;26.00;16.90;;;;;;;;;;103784;1292;544986;-75
2023/10/17 23:59:30;;;;;;;26.20;17.20;;;;;;;;;;103537;1294;548155;-75
